Time,TemperatureF,DewpointF,PressureIn,WindDirection,WindDirectionDegrees,WindSpeedMPH,WindSpeedGustMPH,Humidity,HourlyPrecipIn,Conditions,Clouds,dailyrainin,SoftwareType,DateUTC
2013-06-17 00:08:00,72.9,56.5,29.92,NE,45,2.0,4.0,56,0.00,,,-99.99,meteohub,2013-06-16 22:08:00,
2013-06-17 00:23:00,71.8,56.7,29.92,NE,45,2.0,5.0,59,0.00,,,0.00,meteohub,2013-06-16 22:23:00,
2013-06-17 00:39:00,71.8,56.7,29.92,NE,45,2.0,4.0,59,0.00,,,0.00,meteohub,2013-06-16 22:39:00,
2013-06-17 00:54:00,72.0,56.8,29.91,NE,45,2.0,4.0,59,0.00,,,0.00,meteohub,2013-06-16 22:54:00,
2013-06-17 01:10:00,71.2,56.7,29.91,NE,45,2.0,4.0,60,0.00,,,0.00,meteohub,2013-06-16 23:10:00,
2013-06-17 01:25:00,70.7,56.8,29.91,NE,45,1.0,2.0,61,0.00,,,0.00,meteohub,2013-06-16 23:25:00,
2013-06-17 01:41:00,70.3,57.0,29.90,NE,45,1.0,3.0,62,0.00,,,0.00,meteohub,2013-06-16 23:41:00,
2013-06-17 01:56:00,70.3,56.7,29.90,NE,45,1.0,4.0,62,0.00,,,0.00,meteohub,2013-06-16 23:56:00,
2013-06-17 02:12:00,69.3,57.2,29.90,NE,45,1.0,3.0,65,0.00,,,0.00,meteohub,2013-06-17 00:12:00,
2013-06-17 02:27:00,69.3,57.4,29.89,NE,45,2.0,4.0,66,0.00,,,0.00,meteohub,2013-06-17 00:27:00,
2013-06-17 02:42:00,70.7,57.7,29.88,NE,45,1.0,2.0,63,0.00,,,0.00,meteohub,2013-06-17 00:42:00,
2013-06-17 02:57:00,70.7,57.6,29.88,NE,45,1.0,2.0,63,0.00,,,0.00,meteohub,2013-06-17 00:57:00,
2013-06-17 03:13:00,70.9,55.2,29.88,NE,45,0.0,3.0,57,0.00,,,0.00,meteohub,2013-06-17 01:13:00,
2013-06-17 03:28:00,71.8,52.2,29.88,North,0,2.0,4.0,49,0.00,,,0.00,meteohub,2013-06-17 01:28:00,
2013-06-17 03:44:00,73.0,52.3,29.88,North,0,2.0,4.0,48,0.00,,,0.00,meteohub,2013-06-17 01:44:00,
2013-06-17 03:59:00,72.7,52.7,29.88,ENE,68,0.0,3.0,49,0.00,,,0.00,meteohub,2013-06-17 01:59:00,
2013-06-17 04:15:00,72.7,52.7,29.88,ENE,68,1.0,2.0,49,0.00,,,0.00,meteohub,2013-06-17 02:15:00,
2013-06-17 04:30:00,73.2,52.3,29.87,ENE,68,0.0,1.0,48,0.00,,,0.00,meteohub,2013-06-17 02:30:00,
2013-06-17 04:45:00,73.2,53.1,29.86,ENE,68,0.0,1.0,49,0.00,,,0.00,meteohub,2013-06-17 02:45:00,
2013-06-17 05:01:00,72.3,52.3,29.85,ENE,68,1.0,3.0,49,0.00,,,0.00,meteohub,2013-06-17 03:01:00,
2013-06-17 05:17:00,71.6,52.0,29.85,ENE,68,1.0,3.0,50,0.00,,,0.00,meteohub,2013-06-17 03:17:00,
2013-06-17 05:32:00,71.2,51.1,29.84,ENE,68,2.0,4.0,49,0.00,,,0.00,meteohub,2013-06-17 03:32:00,
2013-06-17 05:47:00,70.7,51.6,29.84,ENE,68,1.0,3.0,51,0.00,,,0.00,meteohub,2013-06-17 03:47:00,
2013-06-17 06:02:00,70.2,51.8,29.84,NE,45,1.0,7.0,52,0.00,,,0.00,meteohub,2013-06-17 04:02:00,
2013-06-17 06:18:00,69.6,51.6,29.84,ENE,68,1.0,3.0,52,0.00,,,0.00,meteohub,2013-06-17 04:18:00,
2013-06-17 06:34:00,70.9,51.4,29.83,ENE,68,2.0,7.0,50,0.00,,,0.00,meteohub,2013-06-17 04:34:00,
2013-06-17 06:50:00,70.0,52.0,29.83,ENE,68,2.0,5.0,52,0.00,,,0.00,meteohub,2013-06-17 04:50:00,
2013-06-17 07:05:00,70.0,52.2,29.84,NNE,23,3.0,6.0,53,0.00,,,0.00,meteohub,2013-06-17 05:05:00,
2013-06-17 07:20:00,71.4,54.5,29.84,NE,45,4.0,7.0,55,0.00,,,0.00,meteohub,2013-06-17 05:20:00,
2013-06-17 07:35:00,71.4,54.9,29.84,NNE,23,2.0,5.0,56,0.00,,,0.00,meteohub,2013-06-17 05:35:00,
2013-06-17 07:51:00,72.9,56.5,29.84,NNE,23,4.0,5.0,56,0.00,,,0.00,meteohub,2013-06-17 05:51:00,
2013-06-17 08:06:00,73.2,56.8,29.84,NNE,23,4.0,8.0,56,0.00,,,0.00,meteohub,2013-06-17 06:06:00,
2013-06-17 08:23:00,73.0,58.3,29.83,NE,45,6.0,10.0,60,0.00,,,0.00,meteohub,2013-06-17 06:23:00,
2013-06-17 08:39:00,73.4,58.6,29.83,NE,45,5.0,8.0,60,0.00,,,0.00,meteohub,2013-06-17 06:39:00,
2013-06-17 08:55:00,74.8,60.1,29.83,NE,45,6.0,10.0,59,0.00,,,0.00,meteohub,2013-06-17 06:55:00,
2013-06-17 09:10:00,76.8,60.1,29.83,NE,45,6.0,12.0,56,0.00,,,0.00,meteohub,2013-06-17 07:10:00,
2013-06-17 09:26:00,78.1,60.1,29.83,ENE,68,7.0,11.0,54,0.00,,,0.00,meteohub,2013-06-17 07:26:00,
2013-06-17 09:41:00,80.1,59.7,29.83,NE,45,4.0,11.0,50,0.00,,,0.00,meteohub,2013-06-17 07:41:00,
2013-06-17 09:56:00,81.5,60.4,29.83,ENE,68,4.0,9.0,49,0.00,,,0.00,meteohub,2013-06-17 07:56:00,
2013-06-17 10:12:00,82.2,61.2,29.83,ENE,68,6.0,10.0,49,0.00,,,0.00,meteohub,2013-06-17 08:12:00,
2013-06-17 10:28:00,82.9,61.3,29.83,NE,45,7.0,12.0,48,0.00,,,0.00,meteohub,2013-06-17 08:28:00,
2013-06-17 10:43:00,83.3,61.5,29.83,ENE,68,5.0,11.0,48,0.00,,,0.00,meteohub,2013-06-17 08:43:00,
2013-06-17 10:59:00,84.7,61.7,29.83,ENE,68,4.0,10.0,46,0.00,,,0.00,meteohub,2013-06-17 08:59:00,
2013-06-17 11:14:00,85.3,62.4,29.82,ENE,68,6.0,9.0,46,0.00,,,0.00,meteohub,2013-06-17 09:14:00,
2013-06-17 11:29:00,88.5,59.7,29.83,SSE,158,5.0,9.0,38,0.00,,,0.00,meteohub,2013-06-17 09:29:00,
2013-06-17 11:45:00,88.7,56.5,29.83,SE,135,7.0,12.0,33,0.00,,,0.00,meteohub,2013-06-17 09:45:00,
2013-06-17 12:01:00,89.1,56.3,29.83,SSE,158,7.0,13.0,33,0.00,,,0.00,meteohub,2013-06-17 10:01:00,
2013-06-17 12:16:00,89.6,55.8,29.83,SE,135,5.0,12.0,32,0.00,,,0.00,meteohub,2013-06-17 10:16:00,
2013-06-17 12:31:00,89.8,56.8,29.83,SSE,158,5.0,11.0,33,0.00,,,0.00,meteohub,2013-06-17 10:31:00,
2013-06-17 12:46:00,89.8,56.8,29.83,SE,135,6.0,12.0,33,0.00,,,0.00,meteohub,2013-06-17 10:46:00,
2013-06-17 13:02:00,90.0,57.4,29.83,SSE,158,5.0,11.0,33,0.00,,,0.00,meteohub,2013-06-17 11:02:00,
2013-06-17 13:17:00,90.3,57.2,29.83,South,180,6.0,11.0,32,0.00,,,0.00,meteohub,2013-06-17 11:17:00,
2013-06-17 13:33:00,90.3,57.9,29.83,SSE,158,7.0,15.0,33,0.00,,,0.00,meteohub,2013-06-17 11:33:00,
2013-06-17 13:49:00,90.1,57.6,29.82,SSE,158,5.0,15.0,33,0.00,,,0.00,meteohub,2013-06-17 11:49:00,
2013-06-17 14:04:00,90.5,59.0,29.82,SE,135,6.0,12.0,34,0.00,,,0.00,meteohub,2013-06-17 12:04:00,
2013-06-17 14:19:00,90.0,59.5,29.82,SSW,203,4.0,9.0,36,0.00,,,0.00,meteohub,2013-06-17 12:19:00,
2013-06-17 14:35:00,90.3,59.7,29.81,SE,135,7.0,8.0,36,0.00,,,0.00,meteohub,2013-06-17 12:35:00,
2013-06-17 14:50:00,90.1,60.6,29.81,SSW,203,5.0,5.0,37,0.00,,,0.00,meteohub,2013-06-17 12:50:00,
2013-06-17 15:05:00,90.3,62.2,29.80,SW,225,8.0,9.0,39,0.00,,,0.00,meteohub,2013-06-17 13:05:00,
2013-06-17 15:21:00,90.3,62.8,29.80,WSW,248,8.0,10.0,39,0.00,,,0.00,meteohub,2013-06-17 13:21:00,
2013-06-17 15:36:00,90.9,63.1,29.80,SW,225,8.0,10.0,40,0.00,,,0.00,meteohub,2013-06-17 13:36:00,
2013-06-17 15:51:00,90.1,63.3,29.79,WSW,248,4.0,10.0,41,0.00,,,0.00,meteohub,2013-06-17 13:51:00,
2013-06-17 16:06:00,88.7,63.7,29.79,SSW,203,6.0,11.0,43,0.00,,,0.00,meteohub,2013-06-17 14:06:00,
2013-06-17 16:22:00,85.1,63.9,29.80,WSW,248,7.0,15.0,49,0.00,,,0.00,meteohub,2013-06-17 14:22:00,
2013-06-17 16:38:00,84.4,65.7,29.80,WSW,248,7.0,16.0,53,0.00,,,0.00,meteohub,2013-06-17 14:38:00,
2013-06-17 16:53:00,82.4,66.2,29.80,WSW,248,13.0,17.0,58,0.00,,,0.00,meteohub,2013-06-17 14:53:00,
2013-06-17 17:08:00,82.2,66.4,29.80,SW,225,7.0,14.0,59,0.00,,,0.00,meteohub,2013-06-17 15:08:00,
2013-06-17 17:24:00,81.1,66.4,29.79,WSW,248,8.0,13.0,61,0.00,,,0.00,meteohub,2013-06-17 15:24:00,
2013-06-17 17:39:00,81.1,66.6,29.79,WSW,248,10.0,13.0,61,0.00,,,0.00,meteohub,2013-06-17 15:39:00,
2013-06-17 17:55:00,81.9,66.6,29.79,SW,225,6.0,10.0,60,0.00,,,0.00,meteohub,2013-06-17 15:55:00,
2013-06-17 18:10:00,81.1,66.9,29.79,SW,225,6.0,11.0,62,0.00,,,0.00,meteohub,2013-06-17 16:10:00,
2013-06-17 18:25:00,81.0,66.7,29.78,WSW,248,4.0,9.0,62,0.00,,,0.00,meteohub,2013-06-17 16:25:00,
2013-06-17 18:41:00,80.4,67.1,29.78,SSW,203,6.0,8.0,63,0.00,,,0.00,meteohub,2013-06-17 16:41:00,
2013-06-17 18:55:00,80.6,67.1,29.79,SSE,158,2.0,9.0,63,0.00,,,0.00,meteohub,2013-06-17 16:55:00,
2013-06-17 19:11:00,80.6,67.3,29.78,SSW,203,0.0,6.0,64,0.00,,,0.00,meteohub,2013-06-17 17:11:00,
2013-06-17 19:27:00,81.0,67.1,29.78,SW,225,2.0,4.0,63,0.00,,,0.00,meteohub,2013-06-17 17:27:00,
2013-06-17 19:43:00,81.3,67.5,29.78,South,180,0.0,1.0,63,0.00,,,0.00,meteohub,2013-06-17 17:43:00,
2013-06-17 19:58:00,82.4,67.6,29.78,SW,225,0.0,2.0,61,0.00,,,0.00,meteohub,2013-06-17 17:58:00,
2013-06-17 20:14:00,82.2,67.5,29.79,East,90,0.0,3.0,60,0.00,,,0.00,meteohub,2013-06-17 18:14:00,
2013-06-17 20:29:00,82.0,67.3,29.79,East,90,2.0,3.0,61,0.00,,,0.00,meteohub,2013-06-17 18:29:00,
2013-06-17 20:45:00,81.1,67.3,29.79,ESE,113,1.0,3.0,63,0.00,,,0.00,meteohub,2013-06-17 18:45:00,
2013-06-17 21:04:00,80.8,66.9,29.80,SSE,158,1.0,5.0,63,0.00,,,0.00,meteohub,2013-06-17 19:04:00,
2013-06-17 21:21:00,78.6,67.5,29.81,SW,225,3.0,8.0,68,0.00,,,0.00,meteohub,2013-06-17 19:21:00,
2013-06-17 21:36:00,76.1,67.6,29.81,SSE,158,3.0,7.0,75,0.00,,,0.00,meteohub,2013-06-17 19:36:00,
2013-06-17 21:53:00,73.0,67.3,29.82,SW,225,4.0,9.0,82,0.00,,,0.00,meteohub,2013-06-17 19:53:00,
2013-06-17 22:09:00,72.5,67.6,29.82,SW,225,6.0,9.0,84,0.00,,,0.00,meteohub,2013-06-17 20:09:00,
2013-06-17 22:24:00,71.1,68.0,29.83,West,270,4.0,9.0,90,0.00,,,0.00,meteohub,2013-06-17 20:24:00,
2013-06-17 22:40:00,71.1,68.0,29.83,West,270,4.0,5.0,90,0.00,,,0.00,meteohub,2013-06-17 20:40:00,
2013-06-17 22:55:00,70.7,67.6,29.82,West,270,2.0,5.0,90,0.00,,,0.00,meteohub,2013-06-17 20:55:00,
2013-06-17 23:11:00,70.5,67.8,29.82,NW,315,1.0,6.0,91,0.00,,,0.00,meteohub,2013-06-17 21:11:00,
2013-06-17 23:27:00,70.2,67.5,29.81,NNW,338,2.0,3.0,91,0.00,,,0.00,meteohub,2013-06-17 21:27:00,
2013-06-17 23:42:00,70.0,67.5,29.79,ENE,68,6.0,8.0,91,0.00,,,0.00,meteohub,2013-06-17 21:42:00,
2013-06-17 23:57:00,70.0,67.5,29.79,NE,45,2.0,6.0,92,0.00,,,0.00,meteohub,2013-06-17 21:57:00,